Time;durP1;ratioP1;P1;durP2;ratioP2;P2;SDS_P1;SDS_P2;PMS_P1;PMS_P2;Temp;Humidity;BMP_temperature;BMP_pressure;BME280_temperature;BME280_humidity;BME280_pressure;Samples;Min_cycle;Max_cycle;Signal;HPM_P1;HPM_P2
2023/03/11 00:00:55;;;;;;;2.83;2.30;;;5.40;99.90;;;;;;4910495;29;20270;-60
2023/03/11 00:03:23;;;;;;;3.90;2.83;;;5.40;99.90;;;;;;4911228;29;20250;-60
2023/03/11 00:05:52;;;;;;;2.77;2.37;;;5.40;99.90;;;;;;4910203;29;20207;-60
2023/03/11 00:08:21;;;;;;;2.07;1.97;;;5.30;99.90;;;;;;4903558;29;20206;-60
2023/03/11 00:10:52;;;;;;;2.47;2.27;;;5.40;99.90;;;;;;4912024;29;20228;-60
2023/03/11 00:13:19;;;;;;;2.60;2.40;;;5.30;99.90;;;;;;4910343;29;20217;-61
2023/03/11 00:15:49;;;;;;;2.43;2.07;;;5.30;99.90;;;;;;4912407;29;20210;-60
2023/03/11 00:18:18;;;;;;;2.20;2.10;;;5.30;99.90;;;;;;4908455;29;20207;-60
2023/03/11 00:20:46;;;;;;;2.30;2.10;;;5.30;99.90;;;;;;4911286;29;20274;-61
2023/03/11 00:23:15;;;;;;;2.67;2.47;;;5.30;99.90;;;;;;4910866;29;20294;-60
2023/03/11 00:25:44;;;;;;;3.03;2.73;;;5.30;99.90;;;;;;4909389;29;20618;-60
2023/03/11 00:28:12;;;;;;;3.40;3.10;;;5.30;99.90;;;;;;4912193;29;20206;-60
2023/03/11 00:30:42;;;;;;;2.70;2.50;;;5.30;99.90;;;;;;4901800;29;20198;-60
2023/03/11 00:33:10;;;;;;;4.03;3.13;;;5.20;99.90;;;;;;4912230;29;20203;-60
2023/03/11 00:35:42;;;;;;;3.53;2.97;;;5.30;99.90;;;;;;4913373;29;20201;-60
2023/03/11 00:38:13;;;;;;;2.60;2.40;;;5.20;99.90;;;;;;4915709;29;20202;-60
2023/03/11 00:40:41;;;;;;;2.90;2.60;;;5.20;99.90;;;;;;4908495;29;20297;-61
2023/03/11 00:43:10;;;;;;;3.83;3.20;;;5.30;99.90;;;;;;4916383;29;20366;-60
2023/03/11 00:45:37;;;;;;;4.33;3.70;;;5.30;99.90;;;;;;4916970;29;20202;-61
2023/03/11 00:48:05;;;;;;;6.67;4.43;;;5.20;99.90;;;;;;4916766;29;20237;-61
2023/03/11 00:50:36;;;;;;;4.33;3.93;;;5.20;99.90;;;;;;4916790;29;20623;-61
2023/03/11 00:53:06;;;;;;;5.73;3.83;;;5.20;99.90;;;;;;4916565;29;20277;-60
2023/03/11 00:55:34;;;;;;;3.60;3.30;;;5.20;99.90;;;;;;4914133;29;20265;-60
2023/03/11 00:58:07;;;;;;;4.30;3.00;;;5.10;99.90;;;;;;4915749;29;20214;-61
2023/03/11 01:00:43;;;;;;;4.07;3.67;;;5.10;99.90;;;;;;4911495;29;20202;-61
2023/03/11 01:03:11;;;;;;;3.70;3.20;;;5.10;99.90;;;;;;4909078;29;20203;-60
2023/03/11 01:05:38;;;;;;;3.90;3.33;;;5.10;99.90;;;;;;4906078;29;20202;-60
2023/03/11 01:08:09;;;;;;;5.83;4.40;;;5.10;99.90;;;;;;4916576;29;20198;-61
2023/03/11 01:10:36;;;;;;;5.43;4.10;;;5.10;99.90;;;;;;4916546;29;20266;-59
2023/03/11 01:13:05;;;;;;;4.63;3.80;;;5.10;99.90;;;;;;4914216;29;20218;-61
2023/03/11 01:15:33;;;;;;;6.20;4.70;;;5.10;99.90;;;;;;4914775;29;20725;-60
2023/03/11 01:18:01;;;;;;;5.80;4.33;;;5.10;99.90;;;;;;4915306;29;20205;-60
2023/03/11 01:20:28;;;;;;;5.83;3.70;;;5.10;99.90;;;;;;4915915;29;20191;-60
2023/03/11 01:22:55;;;;;;;4.60;4.10;;;5.10;99.90;;;;;;4916120;29;20205;-61
2023/03/11 01:25:25;;;;;;;4.13;3.60;;;5.10;99.90;;;;;;4910759;29;20202;-60
2023/03/11 01:27:52;;;;;;;6.10;4.07;;;5.10;99.90;;;;;;4915763;29;20210;-61
2023/03/11 01:30:21;;;;;;;4.13;3.73;;;5.10;99.90;;;;;;4916184;29;20215;-60
2023/03/11 01:32:48;;;;;;;5.57;4.07;;;5.00;99.90;;;;;;4915993;29;20209;-60
2023/03/11 01:35:18;;;;;;;4.27;3.60;;;5.00;99.90;;;;;;4914397;29;20217;-62
2023/03/11 01:37:47;;;;;;;4.53;3.60;;;5.00;99.90;;;;;;4914765;29;20210;-60
2023/03/11 01:40:17;;;;;;;3.83;3.27;;;5.00;99.90;;;;;;4912383;29;20528;-61
2023/03/11 01:42:45;;;;;;;11.50;3.23;;;5.00;99.90;;;;;;4915370;29;20210;-61
2023/03/11 01:45:41;;;;;;;10.90;4.97;;;5.00;99.90;;;;;;4913484;29;20256;-61
2023/03/11 01:48:11;;;;;;;8.83;4.30;;;4.90;99.90;;;;;;4913330;29;20246;-61
2023/03/11 01:50:43;;;;;;;13.77;5.90;;;4.90;99.90;;;;;;4914414;29;20225;-61
2023/03/11 01:53:12;;;;;;;15.83;6.50;;;4.90;99.90;;;;;;4913988;29;20658;-61
2023/03/11 01:55:42;;;;;;;15.43;6.77;;;4.90;99.90;;;;;;4913632;29;20219;-61
2023/03/11 01:58:14;;;;;;;10.73;5.07;;;4.80;99.90;;;;;;4914731;29;20745;-61
2023/03/11 02:00:42;;;;;;;13.37;5.07;;;4.80;99.90;;;;;;4914077;29;20194;-61
2023/03/11 02:03:14;;;;;;;17.30;7.23;;;4.80;99.90;;;;;;4912330;29;20210;-60
2023/03/11 02:05:42;;;;;;;16.57;6.87;;;4.80;99.90;;;;;;4903382;29;20199;-60
2023/03/11 02:08:09;;;;;;;10.10;5.30;;;4.80;99.90;;;;;;4906383;29;20203;-61
2023/03/11 02:10:38;;;;;;;11.67;5.20;;;4.80;99.90;;;;;;4910554;29;20214;-59
2023/03/11 02:13:05;;;;;;;9.27;5.03;;;4.80;99.90;;;;;;4914149;29;20567;-61
2023/03/11 02:15:34;;;;;;;10.80;5.10;;;4.80;99.90;;;;;;4909158;29;20329;-61
2023/03/11 02:18:04;;;;;;;10.97;4.53;;;4.80;99.90;;;;;;4913719;29;20206;-60
2023/03/11 02:20:40;;;;;;;11.63;4.53;;;4.80;99.90;;;;;;4916334;29;20206;-61
2023/03/11 02:23:13;;;;;;;6.50;3.63;;;4.80;99.90;;;;;;4913925;29;20213;-60
2023/03/11 02:25:48;;;;;;;7.70;4.10;;;4.80;99.90;;;;;;4909408;29;20302;-59
2023/03/11 02:28:18;;;;;;;11.30;4.47;;;4.80;99.90;;;;;;4911685;29;20225;-61
2023/03/11 02:30:46;;;;;;;6.90;4.40;;;4.80;99.90;;;;;;4913859;29;20222;-61
2023/03/11 02:33:15;;;;;;;9.33;3.83;;;4.70;99.90;;;;;;4912706;29;20211;-60
2023/03/11 02:35:45;;;;;;;8.63;3.80;;;4.80;99.90;;;;;;4913489;29;20266;-61
2023/03/11 02:38:13;;;;;;;6.50;3.63;;;4.70;99.90;;;;;;4912330;29;20328;-61
2023/03/11 02:40:51;;;;;;;3.97;3.23;;;4.70;99.90;;;;;;4913646;29;20202;-61
2023/03/11 02:43:27;;;;;;;4.40;3.10;;;4.70;99.90;;;;;;4912001;29;20331;-60
2023/03/11 02:45:56;;;;;;;3.77;3.20;;;4.70;99.90;;;;;;4914734;29;20281;-59
2023/03/11 02:48:24;;;;;;;3.30;2.90;;;4.70;99.90;;;;;;4909266;29;20329;-61
2023/03/11 02:50:51;;;;;;;3.93;3.20;;;4.70;99.90;;;;;;4912465;29;20305;-61
2023/03/11 02:53:20;;;;;;;3.77;3.03;;;4.70;99.90;;;;;;4912839;29;20274;-61
2023/03/11 02:55:47;;;;;;;3.30;2.93;;;4.60;99.90;;;;;;4913484;29;20257;-61
2023/03/11 02:58:14;;;;;;;3.00;2.80;;;4.60;99.90;;;;;;4913986;29;20206;-61
2023/03/11 03:00:43;;;;;;;4.93;3.30;;;4.60;99.90;;;;;;4911349;29;20662;-61
2023/03/11 03:03:10;;;;;;;4.67;3.13;;;4.70;99.90;;;;;;4905301;29;20203;-61
2023/03/11 03:05:39;;;;;;;5.90;3.50;;;4.60;99.90;;;;;;4911895;29;20210;-61
2023/03/11 03:08:06;;;;;;;5.07;3.27;;;4.60;99.90;;;;;;4912049;29;20214;-61
2023/03/11 03:10:33;;;;;;;8.33;4.27;;;4.60;99.90;;;;;;4913843;29;20218;-61
2023/03/11 03:13:00;;;;;;;9.67;4.80;;;4.60;99.90;;;;;;4913728;29;20212;-60
2023/03/11 03:15:28;;;;;;;7.50;4.50;;;4.50;99.90;;;;;;4903589;29;20221;-61
2023/03/11 03:17:56;;;;;;;5.47;3.60;;;4.50;99.90;;;;;;4911459;29;20313;-61
2023/03/11 03:20:25;;;;;;;4.97;3.07;;;4.60;99.90;;;;;;4912219;29;20565;-60
2023/03/11 03:22:56;;;;;;;7.83;3.60;;;4.50;99.90;;;;;;4912211;29;20218;-60
2023/03/11 03:25:27;;;;;;;7.70;3.80;;;4.50;99.90;;;;;;4913241;29;20684;-61
2023/03/11 03:27:56;;;;;;;6.70;4.27;;;4.60;99.90;;;;;;4912765;29;20202;-60
2023/03/11 03:30:24;;;;;;;7.37;3.90;;;4.50;99.90;;;;;;4911892;29;20520;-61
2023/03/11 03:32:53;;;;;;;6.77;3.57;;;4.60;99.90;;;;;;4912645;29;20207;-60
2023/03/11 03:35:22;;;;;;;14.40;4.13;;;4.50;99.90;;;;;;4912992;29;20218;-61
2023/03/11 03:38:03;;;;;;;7.37;3.60;;;4.50;99.90;;;;;;4912193;29;20228;-60
2023/03/11 03:40:32;;;;;;;4.60;3.37;;;4.50;99.90;;;;;;4912293;29;20241;-60
2023/03/11 03:43:02;;;;;;;6.93;4.37;;;4.50;99.90;;;;;;4910760;29;20206;-61
2023/03/11 03:45:31;;;;;;;12.53;4.47;;;4.40;99.90;;;;;;4911875;29;20212;-61
2023/03/11 03:47:58;;;;;;;7.03;3.57;;;4.40;99.90;;;;;;4912572;29;20243;-61
2023/03/11 03:50:29;;;;;;;5.33;3.27;;;4.40;99.90;;;;;;4911597;29;20230;-60
2023/03/11 03:52:57;;;;;;;6.13;3.53;;;4.40;99.90;;;;;;4911216;29;20206;-61
2023/03/11 03:55:24;;;;;;;7.63;4.00;;;4.40;99.90;;;;;;4912191;29;20199;-60
2023/03/11 03:57:52;;;;;;;4.40;3.20;;;4.30;99.90;;;;;;4911897;29;20730;-61
2023/03/11 04:00:22;;;;;;;8.27;3.23;;;4.30;99.90;;;;;;4911683;29;20704;-60
2023/03/11 04:02:56;;;;;;;6.60;3.47;;;4.30;99.90;;;;;;4909018;29;20213;-60
2023/03/11 04:05:47;;;;;;;9.07;3.30;;;4.30;99.90;;;;;;4909293;29;20272;-61
2023/03/11 04:08:15;;;;;;;8.00;3.23;;;4.20;99.90;;;;;;4913341;29;20195;-61
2023/03/11 04:10:44;;;;;;;5.07;3.60;;;4.20;99.90;;;;;;4909173;29;20318;-60
2023/03/11 04:13:11;;;;;;;7.33;3.70;;;4.20;99.90;;;;;;4912585;29;20221;-61
2023/03/11 04:15:40;;;;;;;8.67;3.73;;;4.20;99.90;;;;;;4912441;29;20302;-61
2023/03/11 04:18:07;;;;;;;7.00;4.03;;;4.20;99.90;;;;;;4906402;29;20206;-60
2023/03/11 04:20:34;;;;;;;6.13;3.10;;;4.20;99.90;;;;;;4914026;29;20684;-61
2023/03/11 04:23:03;;;;;;;6.50;3.47;;;4.20;99.90;;;;;;4915674;29;20309;-60
2023/03/11 04:25:30;;;;;;;5.90;3.67;;;4.20;99.90;;;;;;4911739;29;21016;-61
2023/03/11 04:27:58;;;;;;;8.03;3.70;;;4.20;99.90;;;;;;4917108;29;20203;-60
2023/03/11 04:30:26;;;;;;;8.63;4.10;;;4.20;99.90;;;;;;4915931;29;20230;-61
2023/03/11 04:32:56;;;;;;;8.77;3.83;;;4.20;99.90;;;;;;4915854;29;20222;-60
2023/03/11 04:35:24;;;;;;;6.23;3.40;;;4.20;99.90;;;;;;4913620;29;20289;-60
2023/03/11 04:37:51;;;;;;;6.20;3.20;;;4.20;99.90;;;;;;4914064;29;20296;-60
2023/03/11 04:40:20;;;;;;;6.83;3.63;;;4.10;99.90;;;;;;4915558;29;20662;-61
2023/03/11 04:42:48;;;;;;;5.50;3.43;;;4.10;99.90;;;;;;4915905;29;20202;-60
2023/03/11 04:45:17;;;;;;;5.90;3.60;;;4.10;99.90;;;;;;4914613;29;20224;-61
2023/03/11 04:47:48;;;;;;;9.73;2.80;;;4.10;99.90;;;;;;4914114;29;20206;-61
2023/03/11 04:50:16;;;;;;;5.50;2.47;;;4.10;99.90;;;;;;4915514;29;20250;-61
2023/03/11 04:52:44;;;;;;;5.97;3.40;;;4.10;99.90;;;;;;4914221;29;20305;-60
2023/03/11 04:55:13;;;;;;;6.87;3.53;;;4.10;99.90;;;;;;4916723;29;20206;-61
2023/03/11 04:57:43;;;;;;;6.70;3.07;;;4.10;99.90;;;;;;4914007;29;20630;-61
2023/03/11 05:00:15;;;;;;;7.83;3.20;;;4.10;99.90;;;;;;4916345;29;20197;-61
2023/03/11 05:02:46;;;;;;;8.33;3.90;;;4.10;99.90;;;;;;4914383;29;20266;-60
2023/03/11 05:05:13;;;;;;;7.80;3.33;;;4.10;99.90;;;;;;4915700;29;20202;-61
2023/03/11 05:07:41;;;;;;;8.07;3.73;;;4.10;99.90;;;;;;4914245;29;20615;-60
2023/03/11 05:10:11;;;;;;;8.73;3.50;;;4.10;99.90;;;;;;4914583;29;20225;-62
2023/03/11 05:12:39;;;;;;;9.87;4.10;;;4.00;99.90;;;;;;4916714;29;20230;-60
2023/03/11 05:15:08;;;;;;;11.13;4.53;;;4.00;99.90;;;;;;4909090;29;20225;-60
2023/03/11 05:17:37;;;;;;;8.20;3.47;;;4.00;99.90;;;;;;4915080;29;20210;-60
2023/03/11 05:20:06;;;;;;;7.43;3.90;;;4.00;99.90;;;;;;4913644;29;20595;-60
2023/03/11 05:22:35;;;;;;;6.37;3.63;;;4.00;99.90;;;;;;4914782;29;20574;-61
2023/03/11 05:25:02;;;;;;;7.37;3.70;;;4.00;99.90;;;;;;4914294;29;20233;-61
2023/03/11 05:27:32;;;;;;;10.63;4.70;;;4.00;99.90;;;;;;4915211;29;20692;-61
2023/03/11 05:30:00;;;;;;;11.90;4.63;;;4.00;99.90;;;;;;4914976;29;20210;-60
2023/03/11 05:32:31;;;;;;;9.60;4.67;;;4.00;99.90;;;;;;4915422;29;20266;-60
2023/03/11 05:34:58;;;;;;;6.60;3.60;;;3.90;99.90;;;;;;4913387;29;20270;-60
2023/03/11 05:37:26;;;;;;;5.17;3.33;;;3.90;99.90;;;;;;4906953;29;20309;-60
2023/03/11 05:39:54;;;;;;;4.97;2.87;;;3.90;99.90;;;;;;4913535;29;20670;-59
2023/03/11 05:42:22;;;;;;;3.57;2.70;;;4.00;99.90;;;;;;4914362;29;20214;-61
2023/03/11 05:44:53;;;;;;;5.70;3.27;;;4.00;99.90;;;;;;4913347;29;20222;-61
2023/03/11 05:47:22;;;;;;;4.50;2.70;;;4.00;99.90;;;;;;4914740;29;20266;-61
2023/03/11 05:49:51;;;;;;;4.83;3.50;;;4.00;99.90;;;;;;4914669;29;20235;-61
2023/03/11 05:52:20;;;;;;;11.83;4.97;;;4.00;99.90;;;;;;4914426;29;20213;-61
2023/03/11 05:54:50;;;;;;;17.67;7.10;;;4.40;99.90;;;;;;4914250;29;20214;-61
2023/03/11 05:57:18;;;;;;;15.87;6.07;;;4.00;99.90;;;;;;4914109;29;20206;-61
2023/03/11 05:59:45;;;;;;;8.53;4.43;;;4.00;99.90;;;;;;4914345;29;20678;-60
2023/03/11 06:02:13;;;;;;;8.97;4.10;;;4.00;99.90;;;;;;4913531;29;20302;-59
2023/03/11 06:04:41;;;;;;;5.87;3.53;;;4.00;99.90;;;;;;4913423;29;20812;-60
2023/03/11 06:07:11;;;;;;;5.77;3.17;;;4.00;99.90;;;;;;4912245;29;20210;-60
2023/03/11 06:09:39;;;;;;;5.20;3.30;;;4.00;99.90;;;;;;4908802;29;20277;-60
2023/03/11 06:12:10;;;;;;;6.63;3.60;;;4.00;99.90;;;;;;4912135;29;20298;-59
2023/03/11 06:14:54;;;;;;;16.03;5.67;;;4.10;99.90;;;;;;4913194;29;20226;-60
2023/03/11 06:17:21;;;;;;;10.67;5.57;;;4.10;99.90;;;;;;4912515;29;20202;-60
2023/03/11 06:19:48;;;;;;;6.90;4.43;;;4.10;99.90;;;;;;4915090;29;20306;-60
2023/03/11 06:22:17;;;;;;;4.80;3.73;;;4.10;99.90;;;;;;4913640;29;20202;-61
2023/03/11 06:24:44;;;;;;;4.33;3.40;;;4.10;99.90;;;;;;4913713;29;20207;-62
2023/03/11 06:27:12;;;;;;;5.13;4.03;;;4.00;99.90;;;;;;4910323;29;20215;-60
2023/03/11 06:29:41;;;;;;;4.63;2.70;;;4.00;99.90;;;;;;4911859;29;20670;-62
2023/03/11 06:32:09;;;;;;;3.87;2.60;;;4.10;99.90;;;;;;4913935;29;20340;-61
2023/03/11 06:34:36;;;;;;;3.40;2.53;;;4.10;99.90;;;;;;4914441;29;20318;-62
2023/03/11 06:37:04;;;;;;;3.63;2.87;;;4.10;99.90;;;;;;4912393;29;20217;-61
2023/03/11 06:39:32;;;;;;;5.33;3.57;;;4.10;99.90;;;;;;4913385;29;20213;-60
2023/03/11 06:42:00;;;;;;;7.40;3.57;;;4.10;99.90;;;;;;4912806;29;20638;-61
2023/03/11 06:44:29;;;;;;;5.73;2.90;;;4.10;99.90;;;;;;4911973;29;20214;-61
2023/03/11 06:46:56;;;;;;;5.17;3.07;;;4.10;99.90;;;;;;4914517;29;20214;-61
2023/03/11 06:49:23;;;;;;;3.13;2.53;;;4.10;99.90;;;;;;4913464;29;20718;-61
2023/03/11 06:51:50;;;;;;;3.70;2.73;;;4.10;99.90;;;;;;4912764;29;20229;-61
2023/03/11 06:54:20;;;;;;;3.90;2.73;;;4.00;99.90;;;;;;4912208;29;20235;-61
2023/03/11 06:56:49;;;;;;;3.70;3.20;;;4.10;99.90;;;;;;4912653;29;20210;-61
2023/03/11 06:59:16;;;;;;;4.33;3.20;;;4.10;99.90;;;;;;4912724;29;20206;-62
2023/03/11 07:01:45;;;;;;;3.87;3.10;;;4.10;99.90;;;;;;4912346;29;20228;-63
2023/03/11 07:04:12;;;;;;;2.93;2.50;;;4.20;99.90;;;;;;4913834;29;20285;-60
2023/03/11 07:06:42;;;;;;;3.20;2.10;;;4.30;99.90;;;;;;4912181;29;20217;-61
2023/03/11 07:09:15;;;;;;;3.57;2.40;;;4.20;99.90;;;;;;4912175;29;20214;-61
2023/03/11 07:11:45;;;;;;;3.30;2.40;;;4.20;99.90;;;;;;4912218;29;20227;-60
2023/03/11 07:14:18;;;;;;;3.93;2.30;;;4.20;99.90;;;;;;4912395;29;20289;-61
2023/03/11 07:16:48;;;;;;;5.07;2.40;;;4.10;99.90;;;;;;4911086;29;20725;-61
2023/03/11 07:19:39;;;;;;;3.27;2.43;;;4.20;99.90;;;;;;4913837;29;20674;-60
2023/03/11 07:22:07;;;;;;;3.80;2.33;;;4.30;99.90;;;;;;4907123;29;20203;-61
2023/03/11 07:24:34;;;;;;;2.33;2.10;;;4.30;99.90;;;;;;4906802;29;20226;-61
2023/03/11 07:27:01;;;;;;;2.97;2.03;;;4.40;99.90;;;;;;4901224;29;20202;-60
2023/03/11 07:29:29;;;;;;;3.90;2.10;;;4.40;99.90;;;;;;4912930;29;20218;-62
2023/03/11 07:31:56;;;;;;;2.47;2.20;;;4.40;99.90;;;;;;4914169;29;20214;-60
2023/03/11 07:34:23;;;;;;;3.30;2.00;;;4.40;99.90;;;;;;4914460;29;20213;-60
2023/03/11 07:36:51;;;;;;;2.20;2.00;;;4.50;99.90;;;;;;4913465;29;20210;-61
2023/03/11 07:39:19;;;;;;;3.67;2.60;;;4.50;99.90;;;;;;4913127;29;20226;-61
2023/03/11 07:41:46;;;;;;;2.30;2.10;;;4.50;99.70;;;;;;4910889;29;20217;-61
2023/03/11 07:44:15;;;;;;;2.20;2.07;;;4.50;99.40;;;;;;4913453;29;20206;-61
2023/03/11 07:46:43;;;;;;;4.50;1.90;;;4.50;99.40;;;;;;4912430;29;20214;-61
2023/03/11 07:49:11;;;;;;;3.40;2.30;;;4.50;99.30;;;;;;4913952;29;20242;-60
2023/03/11 07:51:39;;;;;;;1.67;1.57;;;4.50;99.20;;;;;;4906262;29;20219;-60
2023/03/11 07:54:07;;;;;;;2.10;1.97;;;4.50;99.30;;;;;;4914174;29;20199;-60
2023/03/11 07:56:35;;;;;;;2.47;1.90;;;4.50;99.20;;;;;;4914481;29;20265;-61
2023/03/11 07:59:03;;;;;;;1.93;1.70;;;4.60;99.10;;;;;;4913539;29;20265;-61
2023/03/11 08:01:35;;;;;;;3.30;1.77;;;4.60;99.10;;;;;;4914377;29;20246;-61
2023/03/11 08:04:05;;;;;;;4.70;2.30;;;4.60;99.20;;;;;;4914172;29;20201;-61
2023/03/11 08:06:33;;;;;;;4.43;1.90;;;4.60;99.10;;;;;;4904328;29;20358;-61
2023/03/11 08:09:02;;;;;;;2.77;1.80;;;4.60;99.10;;;;;;4909161;29;20207;-61
2023/03/11 08:11:30;;;;;;;2.60;2.20;;;4.50;99.10;;;;;;4914057;29;20266;-61
2023/03/11 08:13:58;;;;;;;3.10;1.60;;;4.70;99.00;;;;;;4909296;29;20438;-61
2023/03/11 08:16:26;;;;;;;3.07;1.80;;;4.70;98.90;;;;;;4908604;29;20202;-60
2023/03/11 08:18:54;;;;;;;1.90;1.80;;;4.80;98.90;;;;;;4911455;29;20206;-60
2023/03/11 08:21:25;;;;;;;2.27;1.60;;;4.80;98.80;;;;;;4913959;29;20595;-60
2023/03/11 08:23:53;;;;;;;2.67;2.20;;;4.80;98.80;;;;;;4910550;29;20662;-60
2023/03/11 08:26:21;;;;;;;2.43;2.00;;;4.80;98.70;;;;;;4903325;29;20258;-61
2023/03/11 08:28:49;;;;;;;6.20;2.97;;;4.80;98.50;;;;;;4912593;29;20216;-60
2023/03/11 08:31:18;;;;;;;2.87;2.43;;;4.80;98.20;;;;;;4913902;29;20222;-59
2023/03/11 08:33:48;;;;;;;4.27;2.60;;;4.80;98.10;;;;;;4911393;29;20639;-60
2023/03/11 08:36:16;;;;;;;3.00;2.40;;;4.80;97.90;;;;;;4912643;29;20203;-61
2023/03/11 08:38:45;;;;;;;3.43;2.67;;;4.80;97.80;;;;;;4911133;29;20645;-61
2023/03/11 08:41:12;;;;;;;2.50;2.30;;;4.80;97.70;;;;;;4912043;29;20199;-61
2023/03/11 08:43:41;;;;;;;3.30;2.37;;;4.80;97.70;;;;;;4910601;29;20305;-61
2023/03/11 08:46:08;;;;;;;2.77;2.50;;;4.90;97.70;;;;;;4911747;29;20202;-61
2023/03/11 08:48:37;;;;;;;1.70;1.60;;;4.80;97.60;;;;;;4911527;29;20277;-61
2023/03/11 08:51:10;;;;;;;1.80;1.70;;;4.90;97.60;;;;;;4911907;29;20253;-61
2023/03/11 08:53:37;;;;;;;4.00;2.90;;;4.90;97.70;;;;;;4906044;29;20226;-62
2023/03/11 08:56:09;;;;;;;3.17;2.27;;;4.90;97.10;;;;;;4906486;29;20282;-61
2023/03/11 08:58:36;;;;;;;2.50;2.30;;;4.90;97.00;;;;;;4914500;29;20667;-61
2023/03/11 09:01:04;;;;;;;2.73;2.20;;;4.90;97.10;;;;;;4911949;29;20198;-62
2023/03/11 09:03:31;;;;;;;2.13;1.93;;;5.00;97.10;;;;;;4916939;29;20206;-60
2023/03/11 09:06:00;;;;;;;3.30;2.10;;;5.00;97.00;;;;;;4915616;29;20677;-61
2023/03/11 09:08:31;;;;;;;2.23;2.03;;;5.00;96.80;;;;;;4916144;29;20286;-62
2023/03/11 09:10:58;;;;;;;2.77;2.20;;;5.00;96.80;;;;;;4913355;29;20675;-61
2023/03/11 09:13:26;;;;;;;3.00;2.20;;;5.00;96.60;;;;;;4915344;29;20245;-60
2023/03/11 09:15:55;;;;;;;3.93;2.50;;;5.00;96.40;;;;;;4906533;29;20195;-61
2023/03/11 09:18:22;;;;;;;3.10;2.10;;;5.00;96.10;;;;;;4913524;29;20662;-61
2023/03/11 09:20:49;;;;;;;3.10;1.90;;;4.90;96.00;;;;;;4915576;29;20289;-62
2023/03/11 09:23:17;;;;;;;1.80;1.70;;;4.90;96.00;;;;;;4908858;29;20199;-61
2023/03/11 09:25:45;;;;;;;1.70;1.60;;;4.90;96.00;;;;;;4911810;29;20655;-61
2023/03/11 09:28:12;;;;;;;1.93;1.83;;;4.90;96.10;;;;;;4909798;29;20722;-61
2023/03/11 09:30:40;;;;;;;4.47;2.00;;;4.90;96.00;;;;;;4915724;29;20214;-61
2023/03/11 09:33:07;;;;;;;2.77;2.20;;;5.00;95.90;;;;;;4916519;29;20295;-61
2023/03/11 09:35:34;;;;;;;2.57;2.30;;;5.00;95.50;;;;;;4915550;29;20643;-61
2023/03/11 09:38:02;;;;;;;3.30;2.27;;;5.00;95.40;;;;;;4915988;29;20582;-61
2023/03/11 09:40:46;;;;;;;1.60;1.50;;;5.10;95.40;;;;;;4915201;29;20730;-61
2023/03/11 09:43:24;;;;;;;1.63;1.53;;;5.10;95.40;;;;;;4913232;29;20225;-62
2023/03/11 09:46:00;;;;;;;2.87;1.70;;;5.20;95.40;;;;;;4915432;29;20670;-60
2023/03/11 09:48:34;;;;;;;2.53;1.70;;;6.10;95.50;;;;;;4914499;29;20639;-61
2023/03/11 09:51:08;;;;;;;2.87;2.00;;;5.20;94.70;;;;;;4915853;29;20202;-62
2023/03/11 09:53:41;;;;;;;2.10;1.83;;;5.20;94.30;;;;;;4914733;29;20197;-61
2023/03/11 09:56:10;;;;;;;1.70;1.60;;;5.20;93.90;;;;;;4916243;29;20202;-61
2023/03/11 09:58:41;;;;;;;2.17;1.80;;;5.20;94.00;;;;;;4914810;29;20206;-61
2023/03/11 10:01:21;;;;;;;1.83;1.67;;;5.20;93.80;;;;;;4915900;29;20381;-60
2023/03/11 10:03:49;;;;;;;2.30;1.80;;;5.20;93.90;;;;;;4916103;29;20198;-61
2023/03/11 10:06:21;;;;;;;2.00;1.80;;;5.30;93.90;;;;;;4914954;29;20532;-62
2023/03/11 10:08:54;;;;;;;1.70;1.60;;;5.30;93.80;;;;;;4915350;29;20210;-61
2023/03/11 10:11:50;;;;;;;3.87;2.23;;;5.30;93.80;;;;;;4897630;29;20199;-60
2023/03/11 10:14:32;;;;;;;3.63;2.27;;;5.30;93.60;;;;;;4896210;29;20222;-61
2023/03/11 10:17:15;;;;;;;2.33;2.00;;;5.30;93.60;;;;;;4905903;29;20207;-60
2023/03/11 10:19:46;;;;;;;2.10;1.80;;;5.30;93.30;;;;;;4907025;29;20734;-62
2023/03/11 10:22:20;;;;;;;2.20;2.00;;;5.20;93.20;;;;;;4919799;29;20218;-60
2023/03/11 10:24:59;;;;;;;1.60;1.50;;;5.20;92.80;;;;;;4904226;29;20194;-62
2023/03/11 10:27:32;;;;;;;1.80;1.60;;;5.20;92.80;;;;;;4908993;29;20198;-62
2023/03/11 10:30:06;;;;;;;1.70;1.60;;;5.20;92.60;;;;;;4906717;29;20374;-62
2023/03/11 10:32:41;;;;;;;1.70;1.60;;;5.20;92.70;;;;;;4903213;29;20700;-62
2023/03/11 10:35:17;;;;;;;2.83;1.70;;;5.30;92.60;;;;;;4913959;29;20201;-62
2023/03/11 10:37:51;;;;;;;1.77;1.40;;;5.30;92.60;;;;;;4908438;29;20237;-61
2023/03/11 10:40:23;;;;;;;2.13;1.70;;;5.40;92.60;;;;;;4914188;29;20210;-62
2023/03/11 10:42:51;;;;;;;3.17;1.67;;;5.40;92.20;;;;;;4907400;29;20281;-60
2023/03/11 10:45:22;;;;;;;1.97;1.37;;;5.40;92.00;;;;;;4913812;29;20194;-61
2023/03/11 10:47:50;;;;;;;4.70;1.60;;;5.40;91.80;;;;;;4904921;29;20689;-61
2023/03/11 10:50:20;;;;;;;2.07;1.60;;;5.40;91.70;;;;;;4907870;29;20317;-61
2023/03/11 10:53:06;;;;;;;1.60;1.50;;;5.50;91.70;;;;;;4911292;29;20221;-62
2023/03/11 10:55:34;;;;;;;2.90;1.57;;;5.50;91.40;;;;;;4906914;29;20194;-62
2023/03/11 10:58:07;;;;;;;4.43;1.47;;;5.50;90.90;;;;;;4912341;29;20198;-62
2023/03/11 11:00:35;;;;;;;1.77;1.60;;;5.50;90.50;;;;;;4912973;29;20193;-61
2023/03/11 11:03:05;;;;;;;2.03;1.30;;;5.60;90.70;;;;;;4914830;29;20232;-62
2023/03/11 11:05:33;;;;;;;1.47;1.20;;;5.50;90.20;;;;;;4912193;29;20212;-62
2023/03/11 11:08:06;;;;;;;1.33;1.23;;;5.50;90.10;;;;;;4908077;29;20249;-61
2023/03/11 11:10:35;;;;;;;2.40;1.50;;;5.40;90.30;;;;;;4912530;29;20191;-62
2023/03/11 11:13:17;;;;;;;2.30;1.30;;;5.50;90.20;;;;;;4912294;29;20222;-62
2023/03/11 11:15:53;;;;;;;1.93;1.53;;;5.50;89.90;;;;;;4913183;29;20202;-61
2023/03/11 11:18:25;;;;;;;1.60;1.47;;;5.50;89.50;;;;;;4908094;29;20221;-62
2023/03/11 11:21:00;;;;;;;1.80;1.50;;;5.50;89.10;;;;;;4912340;29;20210;-61
2023/03/11 11:23:32;;;;;;;1.87;1.20;;;5.50;88.30;;;;;;4913955;29;20839;-62
2023/03/11 11:26:03;;;;;;;2.67;1.20;;;5.50;88.30;;;;;;4913291;29;20205;-62
2023/03/11 11:28:32;;;;;;;1.40;1.30;;;5.50;88.20;;;;;;4913669;29;20199;-62
2023/03/11 11:31:02;;;;;;;1.50;1.20;;;6.20;89.20;;;;;;4913289;29;20202;-62
2023/03/11 11:33:32;;;;;;;2.27;1.57;;;5.50;88.80;;;;;;4914365;29;20218;-62
2023/03/11 11:36:02;;;;;;;4.77;1.53;;;5.60;88.40;;;;;;4913213;29;20589;-63
2023/03/11 11:38:31;;;;;;;2.07;1.27;;;5.60;88.00;;;;;;4913423;29;20198;-62
2023/03/11 11:41:03;;;;;;;2.03;1.40;;;5.70;88.20;;;;;;4913094;29;20214;-60
2023/03/11 11:43:42;;;;;;;1.40;1.30;;;5.60;87.90;;;;;;4912067;29;20294;-61
2023/03/11 11:46:18;;;;;;;2.17;1.33;;;5.70;88.00;;;;;;4911551;29;20721;-61
2023/03/11 11:48:56;;;;;;;2.70;1.47;;;5.70;87.90;;;;;;4913100;29;20242;-61
2023/03/11 11:51:29;;;;;;;2.40;1.70;;;5.70;87.10;;;;;;4905844;29;20225;-61
2023/03/11 11:54:01;;;;;;;1.23;1.13;;;5.70;86.50;;;;;;4912910;29;20305;-61
2023/03/11 11:56:28;;;;;;;2.00;1.40;;;5.70;86.50;;;;;;4907340;29;20198;-61
2023/03/11 11:58:55;;;;;;;2.57;1.27;;;5.80;85.90;;;;;;4906849;29;20272;-61
2023/03/11 12:01:35;;;;;;;3.53;1.77;;;5.90;84.80;;;;;;4911110;29;20216;-62
2023/03/11 12:04:20;;;;;;;2.63;1.93;;;6.00;84.80;;;;;;4914923;29;20190;-64
2023/03/11 12:06:54;;;;;;;3.63;1.70;;;6.00;84.20;;;;;;4912068;29;20242;-61
2023/03/11 12:09:29;;;;;;;3.03;1.80;;;6.00;83.70;;;;;;4913977;29;20305;-61
2023/03/11 12:12:05;;;;;;;1.67;1.30;;;6.00;82.20;;;;;;4908815;29;20222;-62
2023/03/11 12:14:37;;;;;;;1.43;1.33;;;6.10;81.40;;;;;;4909232;29;20531;-62
2023/03/11 12:17:05;;;;;;;1.70;1.10;;;6.10;81.30;;;;;;4900285;29;20218;-61
2023/03/11 12:19:50;;;;;;;1.77;1.47;;;6.10;81.50;;;;;;4910556;29;20257;-61
2023/03/11 12:22:46;;;;;;;4.83;2.27;;;7.30;81.70;;;;;;4906463;29;20246;-61
2023/03/11 12:25:31;;;;;;;9.37;4.13;;;6.00;79.90;;;;;;4907771;29;20222;-62
2023/03/11 12:28:08;;;;;;;14.33;5.50;;;6.00;79.50;;;;;;4912200;29;20195;-61
2023/03/11 12:30:41;;;;;;;12.83;5.37;;;5.90;79.50;;;;;;4911702;29;20221;-61
2023/03/11 12:33:14;;;;;;;9.97;4.70;;;5.80;79.50;;;;;;4907023;29;20214;-61
2023/03/11 12:35:50;;;;;;;4.50;3.10;;;5.80;80.00;;;;;;4911974;29;20674;-62
2023/03/11 12:38:21;;;;;;;3.27;2.33;;;5.80;80.30;;;;;;4919837;29;20293;-62
2023/03/11 12:40:57;;;;;;;2.67;1.83;;;5.80;80.70;;;;;;4916934;29;20281;-62
2023/03/11 12:43:42;;;;;;;1.70;1.57;;;5.80;80.70;;;;;;4915890;29;20190;-61
2023/03/11 12:46:11;;;;;;;1.47;1.30;;;5.80;80.50;;;;;;4911918;29;20210;-62
2023/03/11 12:48:44;;;;;;;1.20;1.10;;;5.80;80.30;;;;;;4918415;29;20270;-62
2023/03/11 12:51:39;;;;;;;1.20;1.10;;;5.80;80.50;;;;;;4918177;29;20199;-62
2023/03/11 12:54:29;;;;;;;1.30;1.20;;;5.80;80.60;;;;;;4913063;29;20225;-62
2023/03/11 12:56:58;;;;;;;1.23;1.13;;;5.90;80.90;;;;;;4914546;29;20198;-61
2023/03/11 12:59:50;;;;;;;1.57;1.20;;;5.90;80.70;;;;;;4915602;29;20198;-62
2023/03/11 13:02:31;;;;;;;1.13;1.03;;;5.90;81.00;;;;;;4912878;29;20186;-64
2023/03/11 13:05:06;;;;;;;1.53;1.40;;;5.90;81.50;;;;;;4915025;29;20681;-61
2023/03/11 13:07:45;;;;;;;3.13;1.40;;;5.90;81.40;;;;;;4915839;29;20276;-63
2023/03/11 13:10:20;;;;;;;1.10;1.00;;;5.90;81.40;;;;;;4915146;29;20640;-62
2023/03/11 13:12:49;;;;;;;2.63;1.63;;;5.90;81.80;;;;;;4914912;29;20327;-62